createdAt,value
2023-01-29T00:00:48.168Z,87.6
2023-01-29T00:01:48.389Z,87.7
2023-01-29T00:02:48.434Z,87.7
2023-01-29T00:03:48.207Z,87.8
2023-01-29T00:04:48.220Z,87.8
2023-01-29T00:05:48.220Z,87.7
2023-01-29T00:06:48.236Z,87.8
2023-01-29T00:07:48.242Z,87.9
2023-01-29T00:08:48.258Z,88.1
2023-01-29T00:09:48.263Z,88.0
2023-01-29T00:10:48.274Z,88.2
2023-01-29T00:11:48.307Z,88.2
2023-01-29T00:12:48.293Z,88.1
2023-01-29T00:13:48.314Z,88.2
2023-01-29T00:14:48.341Z,88.2
2023-01-29T00:15:48.330Z,88.2
2023-01-29T00:16:48.607Z,88.2
2023-01-29T00:17:48.488Z,88.0
2023-01-29T00:18:48.360Z,88.0
2023-01-29T00:19:48.398Z,88.0
2023-01-29T00:20:48.379Z,88.1
2023-01-29T00:21:48.389Z,88.2
2023-01-29T00:22:48.437Z,88.2
2023-01-29T00:23:48.408Z,88.2
2023-01-29T00:24:48.421Z,88.2
2023-01-29T00:25:48.441Z,88.3
2023-01-29T00:26:48.442Z,88.3
2023-01-29T00:27:48.475Z,88.4
2023-01-29T00:28:48.474Z,88.4
2023-01-29T00:29:48.482Z,88.4
2023-01-29T00:30:48.500Z,88.4
2023-01-29T00:31:48.861Z,88.3
2023-01-29T00:32:48.559Z,88.2
2023-01-29T00:33:48.570Z,88.3
2023-01-29T00:34:48.549Z,88.5
2023-01-29T00:35:48.554Z,88.6
2023-01-29T00:36:48.557Z,88.7
2023-01-29T00:37:48.569Z,88.8
2023-01-29T00:38:48.572Z,88.7
2023-01-29T00:39:48.653Z,88.8
2023-01-29T00:40:48.594Z,88.8
2023-01-29T00:41:48.604Z,88.8
2023-01-29T00:42:48.628Z,88.8
2023-01-29T00:43:48.635Z,88.8
2023-01-29T00:44:48.640Z,88.8
2023-01-29T00:45:48.648Z,88.8
2023-01-29T00:46:48.805Z,88.6
2023-01-29T00:47:48.677Z,88.7
2023-01-29T00:48:48.686Z,88.7
2023-01-29T00:49:48.683Z,88.7
2023-01-29T00:50:48.694Z,88.7
2023-01-29T00:51:48.791Z,88.7
2023-01-29T00:52:48.747Z,88.6
2023-01-29T00:53:48.733Z,88.6
2023-01-29T00:54:48.737Z,88.7
2023-01-29T00:55:48.748Z,88.7
2023-01-29T00:56:48.764Z,88.8
2023-01-29T00:57:48.808Z,89.1
2023-01-29T00:58:48.802Z,89.3
2023-01-29T00:59:48.880Z,89.6
2023-01-29T01:00:48.948Z,89.8
2023-01-29T01:01:48.928Z,89.9
2023-01-29T01:02:48.845Z,90.1
2023-01-29T01:03:48.840Z,90.2
2023-01-29T01:04:48.887Z,90.3
2023-01-29T01:05:48.877Z,90.3
2023-01-29T01:06:48.858Z,90.3
2023-01-29T01:07:49.160Z,90.2
2023-01-29T01:08:48.876Z,90.0
2023-01-29T01:09:48.888Z,90.0
2023-01-29T01:10:48.900Z,90.1
2023-01-29T01:11:48.909Z,90.3
2023-01-29T01:12:48.922Z,90.3
2023-01-29T01:13:48.917Z,90.3
2023-01-29T01:14:48.942Z,90.4
2023-01-29T01:15:48.955Z,90.4
2023-01-29T01:16:48.979Z,90.4
2023-01-29T01:17:49.042Z,90.2
2023-01-29T01:18:49.004Z,90.2
2023-01-29T01:19:49.019Z,90.1
2023-01-29T01:37:49.404Z,91.0
2023-01-29T01:38:49.190Z,91.1
2023-01-29T01:39:49.292Z,91.1
2023-01-29T01:40:49.231Z,91.2
2023-01-29T01:41:49.253Z,91.2
2023-01-29T01:42:49.289Z,91.2
2023-01-29T01:43:49.253Z,91.1
2023-01-29T01:44:49.275Z,91.0
2023-01-29T01:45:49.394Z,90.9
2023-01-29T01:46:49.302Z,90.9
2023-01-29T01:47:49.331Z,90.8
2023-01-29T01:48:49.317Z,90.6
2023-01-29T01:49:49.350Z,90.5
2023-01-29T01:50:49.334Z,90.5
2023-01-29T01:51:49.355Z,90.5
2023-01-29T01:52:49.374Z,90.5
2023-01-29T01:53:49.383Z,90.4
2023-01-29T01:54:49.390Z,90.3
2023-01-29T01:55:49.387Z,90.1
2023-01-29T01:56:49.392Z,90.1
2023-01-29T01:57:49.422Z,90.1
2023-01-29T01:58:49.426Z,90.1
2023-01-29T01:59:49.420Z,90.0
2023-01-29T02:00:49.691Z,89.9
2023-01-29T02:01:49.667Z,89.9
2023-01-29T02:02:49.486Z,89.9
2023-01-29T02:03:49.473Z,90.0
2023-01-29T02:04:49.484Z,90.0
2023-01-29T02:05:49.519Z,90.0
2023-01-29T02:06:49.508Z,90.1
2023-01-29T02:07:49.763Z,90.1
2023-01-29T02:08:49.518Z,90.1
2023-01-29T02:09:49.535Z,90.0
2023-01-29T02:10:49.549Z,90.0
2023-01-29T02:11:49.569Z,90.1
2023-01-29T02:12:49.575Z,90.2
2023-01-29T02:13:49.577Z,90.2
2023-01-29T02:14:49.598Z,90.2
2023-01-29T02:15:49.616Z,90.2
2023-01-29T02:16:49.624Z,90.1
2023-01-29T02:17:49.904Z,90.2
2023-01-29T02:18:49.632Z,90.2
2023-01-29T02:19:49.670Z,90.3
2023-01-29T02:20:49.670Z,90.3
2023-01-29T02:21:49.719Z,90.2
2023-01-29T02:22:49.674Z,90.1
2023-01-29T02:23:49.841Z,90.0
2023-01-29T02:24:49.705Z,90.0
2023-01-29T02:25:49.781Z,89.9
2023-01-29T02:26:49.729Z,89.8
2023-01-29T02:27:49.762Z,89.7
2023-01-29T02:28:49.746Z,89.8
2023-01-29T02:29:49.805Z,89.8
2023-01-29T02:30:49.882Z,89.9
2023-01-29T02:31:49.918Z,90.0
2023-01-29T02:32:49.784Z,90.0
2023-01-29T02:33:49.808Z,90.0
2023-01-29T02:34:49.796Z,90.0
2023-01-29T02:35:49.823Z,89.9
2023-01-29T02:36:49.828Z,89.9
2023-01-29T02:37:49.848Z,90.0
2023-01-29T02:38:49.842Z,90.1
2023-01-29T02:39:49.851Z,90.3
2023-01-29T02:40:49.865Z,90.4
2023-01-29T02:41:49.885Z,90.4
2023-01-29T02:42:49.892Z,90.4
2023-01-29T02:43:49.913Z,90.4
2023-01-29T02:44:49.936Z,90.4
2023-01-29T02:45:50.093Z,90.4
2023-01-29T02:46:49.938Z,90.3
2023-01-29T02:47:49.933Z,90.3
2023-01-29T02:48:49.965Z,90.2
2023-01-29T02:49:49.990Z,90.1
2023-01-29T02:50:49.987Z,90.2
2023-01-29T02:51:50.030Z,90.3
2023-01-29T02:52:50.012Z,90.3
2023-01-29T02:53:50.028Z,90.3
2023-01-29T02:54:50.034Z,90.3
2023-01-29T02:55:50.050Z,90.3
2023-01-29T02:56:50.068Z,90.2
2023-01-29T02:57:50.072Z,90.2
2023-01-29T02:58:50.080Z,90.1
2023-01-29T02:59:50.095Z,90.1
2023-01-29T03:00:50.196Z,90.1
2023-01-29T03:01:50.116Z,90.2
2023-01-29T03:02:50.126Z,90.2
2023-01-29T03:03:50.129Z,90.2
2023-01-29T03:04:50.136Z,90.2
2023-01-29T03:05:50.153Z,90.1
2023-01-29T03:06:50.168Z,90.1
2023-01-29T03:07:50.166Z,90.1
2023-01-29T03:08:50.264Z,90.0
2023-01-29T03:09:50.198Z,90.0
2023-01-29T03:10:50.197Z,89.9
2023-01-29T03:11:50.209Z,89.9
2023-01-29T03:12:50.233Z,89.9
2023-01-29T03:13:50.243Z,89.9
2023-01-29T03:14:50.239Z,89.9
2023-01-29T03:15:50.257Z,89.9
2023-01-29T03:16:50.634Z,89.8
2023-01-29T03:17:50.264Z,89.8
2023-01-29T03:18:50.272Z,89.8
2023-01-29T03:19:50.302Z,89.7
2023-01-29T03:20:50.322Z,89.6
2023-01-29T03:21:50.330Z,89.6
2023-01-29T03:22:50.341Z,89.6
2023-01-29T03:23:50.351Z,89.5
2023-01-29T03:24:50.358Z,89.5
2023-01-29T03:25:50.375Z,89.6
2023-01-29T03:26:50.384Z,89.6
2023-01-29T03:27:50.415Z,89.4
2023-01-29T03:28:50.409Z,89.6
2023-01-29T03:29:50.452Z,89.6
2023-01-29T03:30:50.595Z,89.6
2023-01-29T03:31:50.556Z,89.6
2023-01-29T03:32:50.459Z,89.6
2023-01-29T03:33:50.483Z,89.7
2023-01-29T03:34:50.479Z,89.8
2023-01-29T03:35:50.505Z,89.8
2023-01-29T03:36:50.513Z,89.8
2023-01-29T03:37:50.519Z,89.7
2023-01-29T03:38:50.527Z,89.6
2023-01-29T03:39:50.543Z,89.5
2023-01-29T03:40:50.540Z,89.4
2023-01-29T03:41:50.557Z,89.4
2023-01-29T03:42:50.573Z,89.3
2023-01-29T03:43:50.597Z,89.2
2023-01-29T03:44:50.584Z,89.1
2023-01-29T03:45:50.776Z,89.1
2023-01-29T03:46:50.605Z,89.0
2023-01-29T03:47:50.622Z,89.0
2023-01-29T03:48:50.636Z,89.0
2023-01-29T03:49:50.645Z,89.1
2023-01-29T03:50:50.680Z,89.1
2023-01-29T03:51:50.669Z,89.2
2023-01-29T03:52:50.683Z,89.1
2023-01-29T03:53:50.686Z,89.1
2023-01-29T03:54:50.704Z,89.1
2023-01-29T03:55:50.716Z,89.0
2023-01-29T03:56:50.728Z,89.0
2023-01-29T03:57:50.771Z,89.1
2023-01-29T03:58:50.744Z,89.2
2023-01-29T03:59:50.757Z,89.1
2023-01-29T04:00:50.762Z,89.2
2023-01-29T04:01:50.792Z,89.2
2023-01-29T04:02:50.783Z,89.1
2023-01-29T04:03:50.927Z,89.2
2023-01-29T04:04:50.806Z,89.2
2023-01-29T04:05:50.812Z,89.3
2023-01-29T04:06:50.824Z,89.3
2023-01-29T04:07:50.837Z,89.2
2023-01-29T04:08:50.841Z,89.3
2023-01-29T04:09:50.892Z,89.3
2023-01-29T04:10:50.967Z,89.5
2023-01-29T04:11:50.910Z,89.5
2023-01-29T04:12:50.902Z,89.5
2023-01-29T04:13:50.946Z,89.5
2023-01-29T04:14:50.928Z,89.5
2023-01-29T04:15:50.949Z,89.5
2023-01-29T04:16:50.953Z,89.5
2023-01-29T04:17:50.967Z,89.5
2023-01-29T04:18:51.094Z,89.3
2023-01-29T04:19:51.010Z,89.3
2023-01-29T04:20:51.006Z,89.5
2023-01-29T04:21:51.017Z,89.5
2023-01-29T04:22:51.034Z,89.5
2023-01-29T04:23:51.042Z,89.5
2023-01-29T04:24:51.069Z,89.5
2023-01-29T04:25:51.092Z,89.4
2023-01-29T04:26:51.110Z,89.5
2023-01-29T04:27:51.099Z,89.6
2023-01-29T04:28:51.111Z,89.7
2023-01-29T04:29:51.125Z,89.9
2023-01-29T04:30:51.511Z,89.9
2023-01-29T04:31:51.346Z,89.9
2023-01-29T04:32:51.171Z,90.0
2023-01-29T04:33:51.189Z,90.0
2023-01-29T04:34:51.192Z,89.9
2023-01-29T04:35:51.209Z,89.9
2023-01-29T04:36:51.198Z,90.1
2023-01-29T04:37:51.371Z,90.4
2023-01-29T04:38:51.236Z,90.5
2023-01-29T04:39:51.244Z,90.8
2023-01-29T04:40:51.265Z,91.0
2023-01-29T04:41:51.263Z,91.1
2023-01-29T04:42:51.316Z,91.3
2023-01-29T04:43:51.291Z,91.5
2023-01-29T04:44:51.289Z,91.5
2023-01-29T04:45:51.303Z,91.4
2023-01-29T04:46:51.321Z,91.6
2023-01-29T04:47:51.328Z,91.6
2023-01-29T04:48:51.350Z,91.5
2023-01-29T04:49:51.350Z,91.6
2023-01-29T04:50:51.368Z,91.4
2023-01-29T04:51:51.381Z,91.6
2023-01-29T04:52:51.393Z,91.7
2023-01-29T04:53:51.389Z,91.8
2023-01-29T04:54:51.421Z,91.9
2023-01-29T04:55:51.415Z,91.8
2023-01-29T04:56:51.442Z,91.8
2023-01-29T04:57:51.444Z,91.9
2023-01-29T04:58:51.455Z,91.9
2023-01-29T04:59:51.463Z,92.0
2023-01-29T05:00:51.482Z,92.0
2023-01-29T05:01:51.615Z,91.9
2023-01-29T05:02:51.660Z,91.8
2023-01-29T05:03:51.513Z,91.7
2023-01-29T05:04:51.528Z,91.9
2023-01-29T05:05:51.540Z,91.9
2023-01-29T05:06:51.569Z,92.0
2023-01-29T05:07:51.598Z,92.0
2023-01-29T05:08:51.595Z,92.0
2023-01-29T05:09:51.589Z,92.0
2023-01-29T05:10:51.609Z,91.9
2023-01-29T05:11:51.616Z,92.0
2023-01-29T05:12:51.641Z,92.0
2023-01-29T05:13:51.648Z,92.0
2023-01-29T05:14:51.673Z,92.1
2023-01-29T05:15:51.880Z,92.0
2023-01-29T05:16:51.719Z,92.1
2023-01-29T05:17:51.700Z,92.2
2023-01-29T05:18:51.698Z,92.2
2023-01-29T05:19:51.730Z,92.3
2023-01-29T05:20:51.728Z,92.5
2023-01-29T05:21:51.749Z,92.5
2023-01-29T05:22:51.749Z,92.5
2023-01-29T05:23:51.756Z,92.4
2023-01-29T05:24:51.772Z,92.5
2023-01-29T05:25:51.831Z,92.5
2023-01-29T05:26:51.787Z,92.5
2023-01-29T05:27:51.797Z,92.8
2023-01-29T05:28:51.824Z,92.9
2023-01-29T05:29:51.841Z,93.0
2023-01-29T05:30:52.019Z,93.0
2023-01-29T05:31:52.168Z,92.9
2023-01-29T05:32:51.867Z,93.0
2023-01-29T05:33:51.865Z,93.2
2023-01-29T05:34:51.890Z,93.2
2023-01-29T05:35:51.935Z,93.3
2023-01-29T05:36:51.896Z,93.4
2023-01-29T05:37:51.915Z,93.4
2023-01-29T05:38:52.024Z,93.5
2023-01-29T05:39:51.928Z,93.5
2023-01-29T05:40:51.958Z,93.4
2023-01-29T05:41:51.968Z,93.4
2023-01-29T05:42:51.973Z,93.5
2023-01-29T05:43:51.984Z,93.5
2023-01-29T05:44:52.082Z,93.6
2023-01-29T05:45:52.001Z,93.4
2023-01-29T05:46:52.271Z,93.2
2023-01-29T05:47:52.014Z,93.3
2023-01-29T05:48:52.046Z,93.5
2023-01-29T05:49:52.046Z,93.5
2023-01-29T05:50:52.170Z,93.5
2023-01-29T05:51:52.095Z,93.5
2023-01-29T05:52:52.069Z,93.5
2023-01-29T05:53:52.084Z,93.4
2023-01-29T05:54:52.117Z,93.4
2023-01-29T05:55:52.118Z,93.5
2023-01-29T05:56:52.121Z,93.4
2023-01-29T05:57:52.159Z,93.3
2023-01-29T05:58:52.161Z,93.2
2023-01-29T05:59:52.189Z,93.0
2023-01-29T06:00:52.195Z,93.0
2023-01-29T06:01:52.426Z,93.0
2023-01-29T06:02:52.524Z,93.1
2023-01-29T06:03:52.228Z,92.9
2023-01-29T06:04:52.228Z,92.9
2023-01-29T06:05:52.243Z,93.0
2023-01-29T06:06:52.277Z,93.1
2023-01-29T06:07:52.260Z,93.1
2023-01-29T06:08:52.260Z,93.2
2023-01-29T06:09:52.303Z,93.0
2023-01-29T06:10:52.281Z,92.9
2023-01-29T06:11:52.286Z,92.9
2023-01-29T06:12:52.299Z,92.8
2023-01-29T06:13:52.328Z,92.7
2023-01-29T06:14:52.325Z,92.7
2023-01-29T06:15:52.383Z,92.7
2023-01-29T06:16:52.381Z,92.7
2023-01-29T06:17:52.367Z,92.7
2023-01-29T06:18:52.389Z,92.5
2023-01-29T06:19:52.385Z,92.2
2023-01-29T06:20:52.398Z,92.3
2023-01-29T06:21:52.416Z,92.2
2023-01-29T06:22:52.435Z,92.1
2023-01-29T06:23:52.449Z,91.8
2023-01-29T06:24:52.522Z,91.9
2023-01-29T06:25:52.459Z,92.0
2023-01-29T06:26:52.501Z,92.1
2023-01-29T06:27:52.491Z,92.1
2023-01-29T06:28:52.488Z,92.2
2023-01-29T06:29:52.502Z,92.1
2023-01-29T06:30:52.634Z,92.1
2023-01-29T06:31:52.984Z,92.2
2023-01-29T06:32:52.545Z,92.1
2023-01-29T06:33:52.558Z,92.3
2023-01-29T06:34:52.547Z,92.2
2023-01-29T06:35:52.617Z,92.1
2023-01-29T06:36:52.600Z,92.2
2023-01-29T06:37:52.607Z,92.2
2023-01-29T06:38:52.621Z,92.2
2023-01-29T06:39:52.805Z,92.0
2023-01-29T06:40:52.656Z,92.0
2023-01-29T06:41:52.638Z,92.0
2023-01-29T06:42:52.663Z,91.9
2023-01-29T06:43:52.734Z,91.9
2023-01-29T06:44:52.662Z,91.8
2023-01-29T06:45:52.837Z,91.9
2023-01-29T06:46:52.704Z,91.9
2023-01-29T06:47:52.759Z,92.1
2023-01-29T06:48:52.729Z,91.9
2023-01-29T06:49:52.728Z,91.9
2023-01-29T06:50:52.749Z,91.8
2023-01-29T06:51:52.743Z,91.6
2023-01-29T06:52:52.760Z,91.7
2023-01-29T06:53:52.774Z,91.7
2023-01-29T06:54:53.610Z,91.4
2023-01-29T06:55:52.793Z,91.3
2023-01-29T06:56:52.816Z,91.2
2023-01-29T06:57:52.827Z,91.3
2023-01-29T06:58:52.832Z,91.3
2023-01-29T06:59:52.852Z,91.1
2023-01-29T07:00:52.964Z,91.1
2023-01-29T07:01:53.004Z,91.0
2023-01-29T07:02:52.874Z,90.9
2023-01-29T07:03:52.902Z,90.9
2023-01-29T07:04:52.931Z,90.7
2023-01-29T07:05:53.077Z,90.6
2023-01-29T07:06:52.920Z,90.5
2023-01-29T07:07:52.928Z,90.7
2023-01-29T07:08:52.927Z,90.6
2023-01-29T07:09:52.958Z,90.7
2023-01-29T07:10:52.985Z,90.6
2023-01-29T07:11:52.986Z,90.6
2023-01-29T07:12:52.979Z,90.3
2023-01-29T07:13:53.002Z,90.0
2023-01-29T07:14:53.013Z,89.9
2023-01-29T07:15:53.012Z,90.1
2023-01-29T07:16:53.044Z,90.0
2023-01-29T07:17:53.043Z,89.9
2023-01-29T07:18:53.095Z,89.9
2023-01-29T07:19:53.070Z,89.7
2023-01-29T07:20:53.065Z,89.6
2023-01-29T07:21:53.074Z,89.6
2023-01-29T07:22:53.085Z,89.4
2023-01-29T07:23:53.089Z,89.4
2023-01-29T07:24:53.091Z,88.9
2023-01-29T07:25:53.135Z,88.8
2023-01-29T07:26:53.140Z,88.9
2023-01-29T07:27:53.178Z,89.0
2023-01-29T07:28:53.226Z,89.1
2023-01-29T07:29:53.191Z,89.0
2023-01-29T07:30:53.422Z,89.1
2023-01-29T07:31:53.961Z,89.2
2023-01-29T07:32:53.248Z,89.2
2023-01-29T07:33:53.257Z,89.0
2023-01-29T07:34:53.252Z,88.9
2023-01-29T07:35:53.273Z,89.0
2023-01-29T07:36:53.293Z,88.5
2023-01-29T07:37:53.299Z,88.3
2023-01-29T07:38:53.325Z,88.1
2023-01-29T07:39:53.325Z,88.1
2023-01-29T07:40:53.339Z,88.2
2023-01-29T07:41:53.356Z,88.3
2023-01-29T07:42:53.375Z,88.3
2023-01-29T07:43:53.492Z,88.3
2023-01-29T07:44:53.385Z,87.8
2023-01-29T07:45:53.607Z,87.6
2023-01-29T07:46:53.395Z,87.4
2023-01-29T07:47:53.421Z,87.3
2023-01-29T07:48:53.431Z,87.4
2023-01-29T07:49:53.437Z,87.4
2023-01-29T07:50:53.440Z,87.2
2023-01-29T07:51:53.485Z,87.0
2023-01-29T07:52:53.467Z,87.1
2023-01-29T07:53:53.530Z,87.0
2023-01-29T07:54:53.521Z,86.9
2023-01-29T07:56:09.340Z,86.9
2023-01-29T07:56:53.533Z,86.8
2023-01-29T07:57:53.526Z,86.8
2023-01-29T07:58:53.539Z,86.9
2023-01-29T07:59:53.566Z,87.0
2023-01-29T08:00:53.750Z,87.1
2023-01-29T08:01:53.695Z,87.1
2023-01-29T08:02:53.650Z,87.0
2023-01-29T08:03:53.660Z,86.9
2023-01-29T08:04:53.635Z,86.7
2023-01-29T08:05:53.656Z,86.4
2023-01-29T08:06:53.653Z,86.3
2023-01-29T08:08:08.032Z,86.2
2023-01-29T08:08:53.726Z,86.0
2023-01-29T08:09:53.693Z,86.0
2023-01-29T08:10:53.709Z,85.6
2023-01-29T08:11:53.759Z,85.3
2023-01-29T08:12:53.717Z,85.4
2023-01-29T08:13:53.744Z,85.3
2023-01-29T08:14:53.760Z,85.0
2023-01-29T08:15:53.751Z,85.2
2023-01-29T08:16:53.864Z,84.4
2023-01-29T08:17:58.752Z,84.9
2023-01-29T08:18:53.798Z,84.9
2023-01-29T08:19:53.792Z,84.9
2023-01-29T08:20:53.794Z,85.0
2023-01-29T08:21:53.839Z,84.9
2023-01-29T08:22:53.832Z,84.9
2023-01-29T08:23:53.847Z,84.7
2023-01-29T08:25:08.879Z,84.6
2023-01-29T08:25:54.019Z,84.2
2023-01-29T08:26:53.868Z,84.2
2023-01-29T08:27:53.896Z,84.2
2023-01-29T08:28:53.883Z,84.2
2023-01-29T08:29:53.928Z,84.0
2023-01-29T08:30:54.066Z,84.0
2023-01-29T08:31:54.104Z,84.1
2023-01-29T08:32:53.989Z,83.8
2023-01-29T08:33:53.961Z,84.0
2023-01-29T08:34:53.965Z,83.9
2023-01-29T08:35:53.977Z,83.8
2023-01-29T08:36:54.005Z,84.1
2023-01-29T08:37:54.006Z,84.1
2023-01-29T08:38:54.011Z,84.1
2023-01-29T08:39:54.034Z,84.1
2023-01-29T08:40:54.025Z,83.8
2023-01-29T08:41:54.041Z,83.8
2023-01-29T08:42:54.055Z,83.6
2023-01-29T08:43:54.065Z,83.3
2023-01-29T08:44:54.064Z,83.2
2023-01-29T08:45:54.188Z,83.6
2023-01-29T08:46:54.107Z,83.9
2023-01-29T08:47:54.298Z,83.9
2023-01-29T08:48:54.110Z,84.0
2023-01-29T08:49:54.120Z,83.9
2023-01-29T08:50:54.141Z,83.9
2023-01-29T08:51:54.177Z,83.7
2023-01-29T08:52:54.169Z,83.6
2023-01-29T08:53:54.171Z,83.8
2023-01-29T08:54:54.204Z,83.9
2023-01-29T08:55:54.178Z,83.9
2023-01-29T08:56:54.183Z,84.0
2023-01-29T08:57:54.254Z,84.2
2023-01-29T08:58:54.223Z,84.2
2023-01-29T08:59:54.230Z,84.1
2023-01-29T09:00:54.401Z,84.0
2023-01-29T09:01:54.268Z,83.8
2023-01-29T09:02:54.277Z,83.7
2023-01-29T09:03:54.272Z,83.6
2023-01-29T09:04:54.278Z,83.5
2023-01-29T09:05:54.287Z,83.3
2023-01-29T09:06:54.303Z,83.3
2023-01-29T09:07:54.473Z,83.2
2023-01-29T09:08:54.312Z,83.6
2023-01-29T09:09:54.332Z,83.5
2023-01-29T09:10:54.345Z,83.9
2023-01-29T09:11:54.368Z,84.0
2023-01-29T09:12:54.369Z,83.8
2023-01-29T09:13:54.391Z,83.7
2023-01-29T09:14:54.401Z,84.0
2023-01-29T09:15:54.410Z,84.2
2023-01-29T09:16:54.636Z,84.2
2023-01-29T09:17:54.416Z,84.0
2023-01-29T09:18:54.426Z,84.3
2023-01-29T09:19:54.654Z,84.5
2023-01-29T09:20:54.470Z,84.6
2023-01-29T09:21:54.452Z,84.7
2023-01-29T09:22:54.450Z,84.8
2023-01-29T09:23:54.464Z,84.7
2023-01-29T09:24:54.470Z,84.6
2023-01-29T09:25:54.476Z,84.7
2023-01-29T09:26:54.495Z,84.5
2023-01-29T09:27:54.515Z,84.6
2023-01-29T09:28:54.492Z,84.7
2023-01-29T09:29:54.523Z,84.9
2023-01-29T09:30:55.073Z,85.0
2023-01-29T09:31:54.888Z,85.0
2023-01-29T09:32:55.525Z,85.0
2023-01-29T09:33:54.550Z,84.9
2023-01-29T09:34:54.542Z,84.9
2023-01-29T09:35:54.559Z,85.1
2023-01-29T09:36:54.572Z,85.5
2023-01-29T09:37:54.599Z,85.5
2023-01-29T09:38:54.586Z,85.6
2023-01-29T09:39:54.593Z,85.4
2023-01-29T09:40:54.670Z,85.2
2023-01-29T09:41:54.674Z,85.1
2023-01-29T09:42:54.843Z,85.2
2023-01-29T09:43:54.619Z,85.3
2023-01-29T09:44:54.620Z,85.3
2023-01-29T09:45:54.949Z,85.1
2023-01-29T09:46:54.639Z,85.6
2023-01-29T09:47:54.720Z,85.9
2023-01-29T09:48:54.658Z,85.9
2023-01-29T09:49:54.662Z,85.9
2023-01-29T09:50:54.664Z,85.9
2023-01-29T09:51:54.668Z,85.9
2023-01-29T09:52:54.679Z,86.1
2023-01-29T09:53:54.674Z,86.2
2023-01-29T09:54:54.700Z,86.5
2023-01-29T09:55:54.685Z,86.6
2023-01-29T09:56:54.699Z,86.8
2023-01-29T09:57:54.738Z,86.9
2023-01-29T09:58:54.706Z,87.0
2023-01-29T09:59:54.720Z,87.3
2023-01-29T10:00:54.735Z,87.2
2023-01-29T10:01:55.190Z,87.2
2023-01-29T10:02:54.777Z,87.2
2023-01-29T10:03:54.741Z,87.2
2023-01-29T10:04:54.874Z,87.1
2023-01-29T10:05:54.794Z,87.1
2023-01-29T10:06:54.783Z,86.9
2023-01-29T10:07:54.779Z,86.8
2023-01-29T10:08:54.808Z,87.1
2023-01-29T10:09:54.804Z,87.2
2023-01-29T10:10:54.785Z,87.2
2023-01-29T10:11:58.475Z,87.1
2023-01-29T10:12:54.828Z,87.1
2023-01-29T10:13:54.808Z,87.0
2023-01-29T10:14:54.860Z,86.8
2023-01-29T10:15:54.845Z,86.6
2023-01-29T10:16:55.041Z,86.5
2023-01-29T10:17:54.830Z,86.4
2023-01-29T10:18:54.835Z,86.3
2023-01-29T10:19:54.841Z,86.3
2023-01-29T10:20:54.890Z,86.0
2023-01-29T10:21:54.848Z,86.0
2023-01-29T10:22:54.849Z,85.9
2023-01-29T10:23:54.884Z,85.9
2023-01-29T10:24:54.877Z,85.9
2023-01-29T10:25:54.896Z,85.9
2023-01-29T10:26:54.875Z,86.0
2023-01-29T10:27:54.904Z,86.3
2023-01-29T10:28:54.895Z,86.3
2023-01-29T10:29:54.919Z,86.4
2023-01-29T10:30:55.393Z,86.5
2023-01-29T10:31:55.391Z,86.3
2023-01-29T10:32:54.932Z,86.3
2023-01-29T10:34:03.370Z,86.3
2023-01-29T10:34:54.951Z,86.3
2023-01-29T10:35:57.021Z,86.2
2023-01-29T10:36:54.954Z,86.2
2023-01-29T10:37:55.000Z,86.2
2023-01-29T10:38:55.001Z,86.1
2023-01-29T10:39:54.988Z,86.2
2023-01-29T10:40:54.997Z,86.0
2023-01-29T10:41:55.003Z,86.2
2023-01-29T10:42:55.009Z,86.4
2023-01-29T10:43:55.028Z,86.6
2023-01-29T10:44:55.054Z,86.6
2023-01-29T10:45:55.031Z,86.8
2023-01-29T10:46:55.089Z,86.9
2023-01-29T10:47:55.054Z,87.0
2023-01-29T10:48:55.052Z,86.8
2023-01-29T10:49:55.231Z,87.0
2023-01-29T10:50:55.084Z,87.2
2023-01-29T10:51:55.080Z,86.9
2023-01-29T10:52:57.441Z,86.8
2023-01-29T10:53:55.123Z,86.8
2023-01-29T10:54:55.166Z,86.7
2023-01-29T10:55:55.118Z,86.8
2023-01-29T10:56:55.137Z,86.8
2023-01-29T10:57:55.128Z,86.8
2023-01-29T10:58:55.166Z,86.9
2023-01-29T10:59:55.146Z,87.0
2023-01-29T11:00:55.154Z,86.9
2023-01-29T11:01:55.263Z,86.9
2023-01-29T11:02:55.595Z,86.9
2023-01-29T11:03:55.180Z,86.9
2023-01-29T11:04:55.201Z,86.9
2023-01-29T11:05:55.197Z,86.9
2023-01-29T11:06:55.204Z,86.8
2023-01-29T11:07:55.214Z,86.7
2023-01-29T11:08:55.254Z,86.8
2023-01-29T11:09:55.228Z,86.8
2023-01-29T11:10:55.247Z,86.9
2023-01-29T11:11:55.263Z,86.9
2023-01-29T11:12:55.347Z,86.9
2023-01-29T11:13:55.283Z,86.9
2023-01-29T11:14:55.300Z,86.7
2023-01-29T11:15:55.264Z,86.9
2023-01-29T11:16:55.384Z,87.1
2023-01-29T11:17:55.279Z,87.3
2023-01-29T11:18:55.319Z,87.5
2023-01-29T11:19:55.306Z,87.3
2023-01-29T11:20:55.306Z,87.4
2023-01-29T11:21:55.320Z,87.4
2023-01-29T11:22:55.321Z,87.5
2023-01-29T11:23:55.340Z,87.7
2023-01-29T11:24:55.361Z,87.8
2023-01-29T11:25:55.341Z,87.9
2023-01-29T11:26:55.348Z,87.4
2023-01-29T11:27:55.348Z,87.5
2023-01-29T11:28:55.359Z,87.5
2023-01-29T11:29:55.361Z,87.2
2023-01-29T11:30:55.683Z,87.2
2023-01-29T11:31:55.510Z,87.2
2023-01-29T11:32:55.370Z,87.1
2023-01-29T11:33:55.368Z,87.0
2023-01-29T11:34:55.381Z,86.7
2023-01-29T11:35:55.381Z,86.4
2023-01-29T11:36:55.396Z,86.5
2023-01-29T11:37:55.409Z,86.8
2023-01-29T11:38:55.405Z,86.3
2023-01-29T11:39:55.419Z,86.2
2023-01-29T11:40:55.432Z,86.0
2023-01-29T11:41:55.490Z,86.2
2023-01-29T11:42:55.453Z,86.1
2023-01-29T11:43:55.463Z,86.1
2023-01-29T11:44:55.480Z,86.1
2023-01-29T11:45:55.472Z,86.2
2023-01-29T11:46:55.480Z,85.9
2023-01-29T11:47:55.488Z,86.2
2023-01-29T11:49:20.285Z,86.1
2023-01-29T11:49:55.504Z,86.1
2023-01-29T11:50:55.544Z,86.2
2023-01-29T11:51:55.569Z,85.6
2023-01-29T11:52:55.531Z,86.0
2023-01-29T11:53:55.530Z,85.8
2023-01-29T11:54:55.584Z,85.8
2023-01-29T11:55:55.544Z,85.6
2023-01-29T11:56:55.562Z,85.6
2023-01-29T11:57:55.586Z,85.8
2023-01-29T11:58:55.695Z,85.7
2023-01-29T11:59:55.574Z,85.8
2023-01-29T12:00:55.716Z,85.8
2023-01-29T12:01:55.602Z,85.6
2023-01-29T12:02:55.593Z,85.2
2023-01-29T12:03:55.800Z,85.1
2023-01-29T12:04:55.609Z,85.0
2023-01-29T12:05:55.963Z,84.8
2023-01-29T12:06:55.626Z,84.7
2023-01-29T12:07:55.629Z,84.8
2023-01-29T12:08:55.627Z,84.7
2023-01-29T12:09:55.638Z,84.3
2023-01-29T12:10:55.664Z,84.4
2023-01-29T12:11:55.659Z,84.0
2023-01-29T12:12:55.645Z,84.1
2023-01-29T12:13:55.664Z,84.3
2023-01-29T12:14:55.664Z,84.5
2023-01-29T12:15:55.779Z,84.5
2023-01-29T12:16:55.699Z,84.4
2023-01-29T12:17:55.684Z,84.3
2023-01-29T12:18:55.689Z,84.4
2023-01-29T12:19:55.700Z,84.3
2023-01-29T12:20:55.708Z,83.9
2023-01-29T12:21:55.777Z,84.1
2023-01-29T12:22:55.716Z,84.2
2023-01-29T12:23:55.718Z,84.5
2023-01-29T12:24:55.735Z,84.1
2023-01-29T12:25:55.731Z,84.2
2023-01-29T12:26:55.736Z,84.6
2023-01-29T12:27:55.751Z,85.0
2023-01-29T12:28:55.753Z,85.4
2023-01-29T12:29:55.765Z,85.8
2023-01-29T12:30:55.873Z,85.9
2023-01-29T12:31:55.771Z,86.2
2023-01-29T12:32:55.796Z,86.2
2023-01-29T12:33:55.782Z,85.7
2023-01-29T12:34:55.840Z,85.9
2023-01-29T12:35:55.805Z,86.4
2023-01-29T12:36:55.802Z,86.6
2023-01-29T12:37:55.835Z,86.4
2023-01-29T12:38:55.810Z,86.6
2023-01-29T12:39:55.832Z,86.7
2023-01-29T12:40:55.833Z,86.6
2023-01-29T12:41:55.841Z,86.3
2023-01-29T12:42:55.832Z,86.4
2023-01-29T12:43:55.854Z,86.0
2023-01-29T12:44:55.859Z,86.0
2023-01-29T12:45:55.894Z,85.6
2023-01-29T12:46:56.045Z,86.2
2023-01-29T12:47:55.875Z,86.3
2023-01-29T12:48:55.891Z,86.6
2023-01-29T12:49:55.890Z,86.5
2023-01-29T12:50:55.888Z,86.3
2023-01-29T12:51:55.917Z,86.0
2023-01-29T12:52:55.895Z,86.2
2023-01-29T12:53:55.984Z,86.1
2023-01-29T12:54:55.917Z,85.8
2023-01-29T12:55:55.948Z,85.6
2023-01-29T12:56:55.931Z,85.8
2023-01-29T12:57:55.980Z,85.1
2023-01-29T12:58:55.937Z,85.1
2023-01-29T12:59:55.950Z,85.2
2023-01-29T13:00:56.121Z,85.5
2023-01-29T13:01:55.963Z,84.9
2023-01-29T13:02:56.148Z,84.5
2023-01-29T13:03:56.014Z,84.4
2023-01-29T13:04:55.981Z,84.6
2023-01-29T13:05:55.991Z,84.7
2023-01-29T13:06:55.999Z,84.3
2023-01-29T13:07:56.002Z,84.4
2023-01-29T13:08:55.999Z,84.2
2023-01-29T13:09:56.011Z,84.3
2023-01-29T13:10:56.031Z,84.1
2023-01-29T13:11:56.083Z,84.0
2023-01-29T13:12:56.031Z,84.0
2023-01-29T13:13:56.040Z,83.9
2023-01-29T13:14:56.052Z,83.8
2023-01-29T13:15:56.087Z,83.6
2023-01-29T13:16:56.057Z,83.2
2023-01-29T13:17:56.083Z,83.6
2023-01-29T13:18:56.097Z,83.4
2023-01-29T13:19:56.070Z,83.6
2023-01-29T13:20:56.085Z,83.6
2023-01-29T13:21:56.085Z,83.7
2023-01-29T13:22:56.107Z,83.5
2023-01-29T13:23:56.104Z,83.4
2023-01-29T13:25:06.151Z,83.4
2023-01-29T13:25:56.113Z,83.4
2023-01-29T13:26:56.148Z,83.0
2023-01-29T13:27:56.134Z,83.0
2023-01-29T13:28:56.155Z,82.9
2023-01-29T13:29:56.150Z,82.8
2023-01-29T13:30:56.298Z,83.2
2023-01-29T13:31:56.324Z,83.2
2023-01-29T13:32:56.171Z,83.1
2023-01-29T13:33:56.204Z,83.0
2023-01-29T13:34:56.176Z,82.8
2023-01-29T13:35:56.182Z,82.7